createdAt,value
2019-04-20T04:33:03.011Z,11.00
2019-04-20T04:35:01.648Z,10.70
2019-04-20T04:37:33.622Z,10.60
2019-04-20T04:40:16.201Z,10.70
2019-04-20T04:42:39.265Z,11.20
2019-04-20T04:44:53.630Z,11.00
2019-04-20T04:47:15.290Z,10.80
2019-04-20T04:49:49.949Z,11.00
2019-04-20T04:52:18.227Z,11.00
2019-04-20T04:54:53.113Z,10.90
2019-04-20T04:57:13.657Z,10.90
2019-04-20T04:59:42.556Z,10.80
2019-04-20T05:02:11.809Z,10.70
2019-04-20T05:05:10.573Z,11.10
2019-04-20T05:07:43.818Z,11.00
2019-04-20T05:10:01.264Z,10.90
2019-04-20T05:12:33.120Z,11.30
2019-04-20T05:15:07.588Z,11.50
2019-04-20T05:17:52.761Z,11.50
2019-04-20T05:20:17.870Z,11.20
2019-04-20T05:22:58.776Z,11.20
2019-04-20T05:25:54.662Z,11.20
2019-04-20T05:28:20.726Z,11.20
2019-04-20T05:30:46.797Z,11.10
2019-04-20T05:33:21.362Z,11.20
2019-04-20T05:36:03.084Z,11.20
2019-04-20T05:38:38.246Z,11.30
2019-04-20T05:41:01.708Z,11.60
2019-04-20T05:43:46.801Z,11.80
2019-04-20T05:46:23.015Z,11.80
2019-04-20T05:48:50.524Z,12.00
2019-04-20T05:51:25.499Z,12.10
2019-04-20T05:53:44.365Z,12.30
2019-04-20T05:56:17.328Z,12.50
2019-04-20T05:58:49.403Z,12.30
2019-04-20T06:01:20.088Z,12.80
2019-04-20T06:03:45.356Z,13.00
2019-04-20T06:06:15.117Z,13.30
2019-04-20T06:08:58.030Z,13.30
2019-04-20T06:11:19.227Z,13.50
2019-04-20T06:13:43.101Z,13.90
2019-04-20T06:16:18.689Z,14.10
2019-04-20T06:18:57.968Z,14.30
2019-04-20T06:21:33.799Z,14.20
2019-04-20T06:24:14.333Z,14.40
2019-04-20T06:26:54.727Z,14.50
2019-04-20T06:29:16.034Z,14.60
2019-04-20T06:31:45.921Z,14.80
2019-04-20T06:34:33.378Z,15.00
2019-04-20T06:36:53.469Z,15.10
2019-04-20T06:39:42.247Z,15.20
2019-04-20T06:47:04.168Z,15.50
2019-04-20T06:49:28.936Z,15.50
2019-04-20T06:51:59.334Z,15.60
2019-04-20T06:54:31.548Z,15.70
2019-04-20T06:57:07.324Z,15.70
2019-04-20T06:59:39.061Z,15.80
2019-04-20T07:02:11.201Z,15.90
2019-04-20T07:04:41.875Z,16.00
2019-04-20T07:07:18.642Z,15.90
2019-04-20T07:09:40.105Z,16.00
2019-04-20T07:11:56.591Z,16.00
2019-04-20T07:14:25.756Z,16.20
2019-04-20T07:17:10.767Z,16.20
2019-04-20T07:19:36.334Z,16.40
2019-04-20T07:22:23.360Z,16.40
2019-04-20T07:24:53.249Z,16.40
2019-04-20T07:27:19.613Z,16.40
2019-04-20T07:29:52.191Z,16.50
2019-04-20T07:32:09.765Z,16.60
2019-04-20T07:34:47.491Z,16.70
2019-04-20T07:39:55.767Z,16.80
2019-04-20T07:42:22.986Z,16.80
2019-04-20T07:44:55.461Z,16.90
2019-04-20T07:47:32.483Z,17.00
2019-04-20T07:49:45.684Z,17.10
2019-04-20T07:52:06.112Z,17.20
2019-04-20T07:55:22.560Z,17.10
2019-04-20T07:57:27.186Z,17.30
2019-04-20T07:59:58.862Z,17.30
2019-04-20T08:02:50.245Z,17.30
2019-04-20T08:05:11.032Z,17.40
2019-04-20T08:07:39.222Z,17.40
2019-04-20T08:10:03.820Z,17.50
2019-04-20T08:12:56.919Z,17.50
2019-04-20T08:15:29.736Z,17.60
2019-04-20T08:17:51.241Z,17.50
2019-04-20T08:20:17.137Z,17.60
2019-04-20T08:22:50.209Z,17.70
2019-04-20T08:25:08.901Z,17.70
2019-04-20T08:27:27.977Z,17.70
2019-04-20T08:30:09.205Z,17.80
2019-04-20T08:33:00.411Z,17.80
2019-04-20T08:35:39.305Z,17.80
2019-04-20T08:38:26.394Z,17.90
2019-04-20T08:40:37.351Z,18.10
2019-04-20T08:43:15.123Z,18.10
2019-04-20T08:45:36.179Z,18.20
2019-04-20T08:48:16.254Z,18.30
2019-04-20T08:50:34.152Z,18.40
2019-04-20T08:53:16.047Z,18.30
2019-04-20T08:55:28.145Z,18.30
2019-04-20T08:57:44.456Z,18.40
2019-04-20T09:00:13.195Z,18.60
2019-04-20T09:02:47.968Z,18.60
2019-04-20T09:05:24.950Z,18.60
2019-04-20T09:07:53.556Z,18.80
2019-04-20T09:10:34.391Z,18.90
2019-04-20T09:12:54.379Z,19.00
2019-04-20T09:15:10.900Z,19.00
2019-04-20T09:17:47.424Z,19.00
2019-04-20T09:20:22.810Z,19.00
2019-04-20T09:23:02.307Z,19.00
2019-04-20T09:25:48.388Z,19.10
2019-04-20T09:28:15.671Z,19.10
2019-04-20T09:30:42.858Z,19.10
2019-04-20T09:33:44.103Z,19.30
2019-04-20T09:36:10.297Z,19.40
2019-04-20T09:38:58.341Z,19.50
2019-04-20T09:41:42.180Z,19.50
2019-04-20T09:43:47.463Z,19.60
2019-04-20T09:46:15.785Z,19.60
2019-04-20T09:48:51.352Z,19.50
2019-04-20T09:51:33.303Z,19.60
2019-04-20T09:53:55.865Z,19.70
2019-04-20T09:56:28.132Z,19.80
2019-04-20T09:59:01.312Z,19.90
2019-04-20T10:01:22.803Z,19.90
2019-04-20T10:03:42.927Z,20.00
2019-04-20T10:06:11.658Z,20.00
2019-04-20T10:08:46.724Z,20.10
2019-04-20T10:11:09.790Z,20.10
2019-04-20T10:13:38.340Z,20.20
2019-04-20T10:16:06.393Z,20.20
2019-04-20T10:18:41.430Z,20.20
2019-04-20T10:21:05.381Z,20.40
2019-04-20T10:23:34.529Z,20.40
2019-04-20T10:26:02.644Z,20.50
2019-04-20T10:28:31.811Z,20.60
2019-04-20T10:30:59.865Z,20.70
2019-04-20T10:33:27.952Z,20.60
2019-04-20T10:35:57.322Z,20.70
2019-04-20T10:38:27.593Z,20.80
2019-04-20T10:41:04.436Z,21.00
2019-04-20T10:43:26.538Z,21.00
2019-04-20T10:45:55.049Z,21.00
2019-04-20T10:48:23.493Z,21.10
2019-04-20T10:50:52.817Z,21.10
2019-04-20T10:53:21.812Z,21.20
2019-04-20T10:55:49.934Z,21.20
2019-04-20T10:58:17.996Z,21.30
2019-04-20T11:00:46.253Z,21.30
2019-04-20T11:03:15.728Z,21.40
2019-04-20T11:05:44.662Z,21.30
2019-04-20T11:08:12.843Z,21.30
2019-04-20T11:10:55.654Z,21.40
2019-04-20T11:13:11.992Z,21.50
2019-04-20T11:15:40.089Z,21.60
2019-04-20T11:18:08.986Z,21.60
2019-04-20T11:20:37.386Z,21.70
2019-04-20T11:23:06.601Z,21.70
2019-04-20T11:25:34.680Z,21.80
2019-04-20T11:28:03.963Z,21.80
2019-04-20T11:30:32.231Z,21.90
2019-04-20T11:33:00.467Z,22.00
2019-04-20T11:35:34.471Z,22.10
2019-04-20T11:37:58.284Z,22.00
2019-04-20T11:40:26.724Z,22.00
2019-04-20T11:42:55.388Z,22.00
2019-04-20T11:45:24.518Z,22.10
2019-04-20T11:47:53.779Z,22.00
2019-04-20T11:50:21.983Z,22.00
2019-04-20T11:52:51.459Z,22.00
2019-04-20T11:55:20.198Z,22.10
2019-04-20T11:57:49.409Z,22.20
2019-04-20T12:00:22.074Z,22.20
2019-04-20T12:03:13.845Z,22.30
2019-04-20T12:05:41.342Z,22.20
2019-04-20T12:08:09.233Z,22.20
2019-04-20T12:10:37.344Z,22.30
2019-04-20T12:13:05.830Z,22.40
2019-04-20T12:15:36.838Z,22.60
2019-04-20T12:18:05.295Z,22.70
2019-04-20T12:20:34.493Z,22.70
2019-04-20T12:23:02.606Z,22.80
2019-04-20T12:25:33.307Z,22.90
2019-04-20T12:28:02.333Z,22.90
2019-04-20T12:30:30.334Z,22.90
2019-04-20T12:33:01.655Z,22.80
2019-04-20T12:35:28.118Z,22.80
2019-04-20T12:37:56.905Z,22.90
2019-04-20T12:40:26.465Z,22.80
2019-04-20T12:42:55.041Z,22.80
2019-04-20T12:45:23.911Z,22.80
2019-04-20T12:47:53.367Z,23.00
2019-04-20T12:50:21.571Z,23.00
2019-04-20T12:52:50.334Z,23.10
2019-04-20T12:55:18.829Z,23.00
2019-04-20T12:57:47.011Z,23.00
2019-04-20T13:00:17.436Z,22.90
2019-04-20T13:02:45.850Z,22.90
2019-04-20T13:05:15.378Z,22.90
2019-04-20T13:07:48.227Z,22.90
2019-04-20T13:10:15.699Z,23.00
2019-04-20T13:12:54.499Z,23.10
2019-04-20T13:15:40.535Z,23.20
2019-04-20T13:18:09.495Z,23.20
2019-04-20T13:20:37.556Z,23.10
2019-04-20T13:23:06.233Z,23.20
2019-04-20T13:25:35.468Z,23.30
2019-04-20T13:28:03.533Z,23.40
2019-04-20T13:30:32.248Z,23.30
2019-04-20T13:33:01.465Z,23.40
2019-04-20T13:35:30.090Z,23.40
2019-04-20T13:37:58.240Z,23.40
2019-04-20T13:40:26.213Z,23.20
2019-04-20T13:42:54.283Z,23.30
2019-04-20T13:45:22.324Z,23.40
2019-04-20T13:47:50.880Z,23.50
2019-04-20T13:50:20.014Z,23.50
2019-04-20T13:52:48.890Z,23.50
2019-04-20T13:55:17.062Z,23.50
2019-04-20T13:58:04.286Z,23.50
2019-04-20T14:00:50.359Z,23.60
2019-04-20T14:03:18.724Z,23.70
2019-04-20T14:05:46.854Z,23.60
2019-04-20T14:08:17.556Z,23.60
2019-04-20T14:10:45.718Z,23.70
2019-04-20T14:13:18.701Z,23.60
2019-04-20T14:15:45.083Z,23.60
2019-04-20T14:18:13.326Z,23.50
2019-04-20T14:20:42.416Z,23.50
2019-04-20T14:23:11.126Z,23.60
2019-04-20T14:25:39.192Z,23.60
2019-04-20T14:28:07.225Z,23.60
2019-04-20T14:30:35.285Z,23.70
2019-04-20T14:33:03.297Z,23.60
2019-04-20T14:35:32.628Z,23.50
2019-04-20T14:38:01.673Z,23.50
2019-04-20T14:40:30.328Z,23.70
2019-04-20T14:43:00.052Z,23.70
2019-04-20T14:45:28.853Z,23.70
2019-04-20T14:47:57.477Z,23.70
2019-04-20T14:50:27.591Z,24.00
2019-04-20T14:52:55.741Z,24.10
2019-04-20T14:55:24.194Z,24.10
2019-04-20T14:57:53.194Z,24.00
2019-04-20T15:00:27.785Z,24.00
2019-04-20T15:02:59.331Z,23.90
2019-04-20T15:05:28.720Z,24.00
2019-04-20T15:07:58.572Z,23.80
2019-04-20T15:10:26.885Z,23.90
2019-04-20T15:12:59.632Z,23.90
2019-04-20T15:15:24.653Z,23.80
2019-04-20T15:17:57.595Z,23.70
2019-04-20T15:20:27.669Z,23.60
2019-04-20T15:22:57.407Z,23.60
2019-04-20T15:25:25.507Z,23.60
2019-04-20T15:27:54.472Z,23.80
2019-04-20T15:30:22.611Z,23.90
2019-04-20T15:32:52.177Z,23.90
2019-04-20T15:35:21.509Z,23.70
2019-04-20T15:37:51.064Z,23.80
2019-04-20T15:40:19.366Z,23.80
2019-04-20T15:42:56.179Z,24.00
2019-04-20T15:45:17.361Z,24.00
2019-04-20T15:47:45.897Z,24.20
2019-04-20T15:50:14.203Z,24.10
2019-04-20T15:52:48.267Z,24.10
2019-04-20T15:55:21.645Z,24.20
2019-04-20T15:57:42.622Z,24.00
2019-04-20T16:00:11.006Z,24.10
2019-04-20T16:02:41.244Z,24.00
2019-04-20T16:05:12.273Z,23.90
2019-04-20T16:07:50.161Z,23.80
2019-04-20T16:10:10.186Z,23.80
2019-04-20T16:12:38.554Z,23.90
2019-04-20T16:15:07.471Z,23.90
2019-04-20T16:17:39.159Z,24.10
2019-04-20T16:20:10.518Z,24.10
2019-04-20T16:22:36.300Z,24.20
2019-04-20T16:25:15.606Z,24.20
2019-04-20T16:27:43.674Z,24.20
2019-04-20T16:30:12.004Z,24.20
2019-04-20T16:32:40.696Z,24.20
2019-04-20T16:35:10.887Z,24.20
2019-04-20T16:37:58.379Z,24.30
2019-04-20T16:40:27.319Z,24.30
2019-04-20T16:42:56.369Z,24.40
2019-04-20T16:45:25.330Z,24.40
2019-04-20T16:47:54.488Z,24.50
2019-04-20T16:50:22.777Z,25.10
2019-04-20T16:52:50.953Z,26.10
2019-04-20T16:55:19.006Z,25.50
2019-04-20T16:57:49.483Z,25.40
2019-04-20T17:00:17.916Z,25.30
2019-04-20T17:02:46.191Z,26.30
2019-04-20T17:05:14.265Z,28.50
2019-04-20T17:07:50.885Z,29.50
2019-04-20T17:10:20.210Z,28.60
2019-04-20T17:12:48.553Z,27.50
2019-04-20T17:15:16.896Z,26.70
2019-04-20T17:17:46.764Z,26.20
2019-04-20T17:20:15.590Z,25.70
2019-04-20T17:22:44.426Z,25.30
2019-04-20T17:25:14.269Z,25.10
2019-04-20T17:27:57.204Z,24.90
2019-04-20T17:30:33.668Z,24.70
2019-04-20T17:33:04.212Z,24.60
2019-04-20T17:35:43.576Z,24.60
2019-04-20T17:38:02.839Z,24.60
2019-04-20T17:40:54.203Z,24.60
2019-04-20T17:43:10.589Z,24.60
2019-04-20T17:45:41.655Z,24.50
2019-04-20T17:48:14.673Z,24.40
2019-04-20T17:50:46.482Z,24.40
2019-04-20T17:53:14.802Z,24.30
2019-04-20T17:55:40.427Z,24.30
2019-04-20T17:58:05.762Z,24.30
2019-04-20T18:00:38.429Z,24.20
2019-04-20T18:03:50.909Z,24.20
2019-04-20T18:06:06.185Z,24.10
2019-04-20T18:08:40.428Z,24.00
2019-04-20T18:11:01.124Z,23.90
2019-04-20T18:13:22.413Z,23.90
2019-04-20T18:16:04.238Z,23.90
2019-04-20T18:18:40.901Z,23.70
2019-04-20T18:20:56.914Z,23.60
2019-04-20T18:23:33.060Z,23.50
2019-04-20T18:26:17.191Z,23.50
2019-04-20T18:28:44.012Z,23.30
2019-04-20T18:31:08.612Z,23.20
2019-04-20T18:33:37.328Z,23.10
2019-04-20T18:36:05.874Z,23.00
2019-04-20T18:38:39.326Z,22.90
2019-04-20T18:41:07.791Z,22.90
2019-04-20T18:43:42.697Z,22.70
2019-04-20T18:46:17.633Z,22.70
2019-04-20T18:48:55.563Z,22.40
2019-04-20T18:51:03.907Z,22.40
2019-04-20T18:53:38.758Z,22.30
2019-04-20T18:56:04.215Z,22.30
2019-04-20T18:58:33.225Z,22.10
2019-04-20T19:01:01.502Z,22.10
2019-04-20T19:03:35.716Z,22.10
2019-04-20T19:06:00.150Z,21.80
2019-04-20T19:08:35.231Z,21.80
2019-04-20T19:11:04.112Z,21.80
2019-04-20T19:13:36.344Z,21.80
2019-04-20T19:16:14.767Z,21.80
2019-04-20T19:18:49.446Z,21.70
2019-04-20T19:21:07.120Z,21.60
2019-04-20T19:23:40.595Z,21.40
2019-04-20T19:26:09.563Z,21.50
2019-04-20T19:28:44.340Z,21.50
2019-04-20T19:31:19.430Z,21.40
2019-04-20T19:33:57.468Z,21.30
2019-04-20T19:36:19.830Z,21.20
2019-04-20T19:38:52.297Z,21.00
2019-04-20T19:41:25.063Z,20.90
2019-04-20T19:43:54.964Z,20.80
2019-04-20T19:46:46.249Z,20.90
2019-04-20T19:48:56.551Z,20.70
2019-04-20T19:51:43.046Z,20.80
2019-04-20T19:54:13.203Z,21.10
2019-04-20T19:56:42.624Z,20.90
2019-04-20T19:59:10.952Z,20.50
2019-04-20T20:01:30.004Z,20.40
2019-04-20T20:04:02.244Z,20.30
2019-04-20T20:06:36.527Z,20.50
2019-04-20T20:09:03.797Z,20.60
2019-04-20T20:11:33.325Z,20.60
2019-04-20T20:13:59.180Z,20.40
2019-04-20T20:16:42.667Z,20.20
2019-04-20T20:19:07.381Z,20.30
2019-04-20T20:21:46.488Z,20.40
2019-04-20T20:23:57.862Z,20.20
2019-04-20T20:26:33.484Z,20.00
2019-04-20T20:29:09.294Z,19.80
2019-04-20T20:31:38.447Z,19.70
2019-04-20T20:34:07.365Z,19.60
2019-04-20T20:36:36.114Z,19.70
2019-04-20T20:39:04.605Z,19.70
2019-04-20T20:41:28.949Z,19.60
2019-04-20T20:44:04.791Z,19.80
2019-04-20T20:46:32.526Z,19.90
2019-04-20T20:49:09.544Z,19.70
2019-04-20T20:51:54.098Z,19.40
2019-04-20T20:54:02.184Z,19.40
2019-04-20T20:56:28.992Z,19.40
2019-04-20T20:59:06.743Z,19.40
2019-04-20T21:01:27.555Z,19.00
2019-04-20T21:03:54.756Z,19.00
2019-04-20T21:06:24.301Z,19.40
2019-04-20T21:08:56.020Z,19.50
2019-04-20T21:11:27.506Z,19.30
2019-04-20T21:13:54.595Z,19.40
2019-04-20T21:16:26.601Z,19.40
2019-04-20T21:19:10.624Z,19.40
2019-04-20T21:21:37.119Z,19.60
2019-04-20T21:24:00.392Z,19.60
2019-04-20T21:26:30.493Z,19.60
2019-04-20T21:28:53.604Z,19.40
2019-04-20T21:31:26.961Z,19.40
2019-04-20T21:33:51.531Z,19.40
2019-04-20T21:36:25.902Z,19.20
2019-04-20T21:38:50.034Z,18.60
2019-04-20T21:41:20.619Z,18.00
2019-04-20T21:43:48.221Z,17.90
2019-04-20T21:46:16.578Z,17.80
2019-04-20T21:48:59.653Z,17.50
2019-04-20T21:51:29.685Z,17.60
2019-04-20T21:53:44.362Z,17.70
2019-04-20T21:56:12.511Z,17.20
2019-04-20T21:58:47.766Z,17.30
2019-04-20T22:01:20.119Z,17.20
2019-04-20T22:03:40.523Z,17.20
2019-04-20T22:06:09.031Z,16.80
2019-04-20T22:08:39.344Z,16.80
2019-04-20T22:11:08.027Z,16.70
2019-04-20T22:13:38.667Z,16.60
2019-04-20T22:16:10.270Z,16.50
2019-04-20T22:18:49.534Z,16.70
2019-04-20T22:21:14.738Z,16.30
2019-04-20T22:23:53.098Z,16.30
2019-04-20T22:26:17.420Z,16.00
2019-04-20T22:28:34.578Z,15.80
2019-04-20T22:31:02.623Z,15.70
2019-04-20T22:33:36.299Z,15.60
2019-04-20T22:36:04.556Z,15.60
2019-04-20T22:38:54.323Z,15.70
2019-04-20T22:41:22.658Z,15.70
2019-04-20T22:43:50.364Z,15.90
2019-04-20T22:46:24.801Z,15.70
2019-04-20T22:49:00.760Z,15.90
2019-04-20T22:51:37.322Z,15.90
2019-04-20T22:54:04.187Z,16.10
2019-04-20T22:56:34.142Z,16.10
2019-04-20T22:58:56.356Z,16.00
2019-04-20T23:01:29.849Z,16.00
2019-04-20T23:03:50.783Z,15.70
2019-04-20T23:06:18.867Z,15.70
2019-04-20T23:09:08.108Z,15.80
2019-04-20T23:11:40.399Z,15.70
2019-04-20T23:14:10.656Z,15.80
2019-04-20T23:16:43.884Z,15.70
2019-04-20T23:19:10.027Z,15.40
2019-04-20T23:21:42.058Z,15.20
2019-04-20T23:24:10.063Z,15.70
2019-04-20T23:26:42.145Z,15.70
2019-04-20T23:29:11.281Z,15.50
